createdAt,value
2023-01-07T00:01:48.502Z,1.73
2023-01-07T00:07:11.878Z,2.47
2023-01-07T00:12:33.805Z,1.40
2023-01-07T00:17:55.575Z,3.25
2023-01-07T00:23:17.314Z,0.98
2023-01-07T00:28:41.599Z,2.42
2023-01-07T00:34:03.968Z,2.17
2023-01-07T00:39:25.729Z,0.52
2023-01-07T00:44:47.443Z,2.75
2023-01-07T00:50:09.237Z,1.08
2023-01-07T00:55:31.930Z,0.93
2023-01-07T01:00:58.678Z,1.08
2023-01-07T01:06:20.535Z,3.00
2023-01-07T01:11:42.359Z,1.83
2023-01-07T01:17:04.161Z,1.17
2023-01-07T01:22:25.936Z,0.50
2023-01-07T01:27:47.752Z,3.42
2023-01-07T01:33:09.595Z,1.00
2023-01-07T01:38:31.348Z,0.70
2023-01-07T01:43:53.141Z,0.65
2023-01-07T01:49:23.502Z,0.60
2023-01-07T01:54:52.634Z,0.85
2023-01-07T02:00:16.682Z,1.58
2023-01-07T02:05:41.692Z,1.00
2023-01-07T02:11:16.915Z,0.50
2023-01-07T02:16:53.339Z,0.60
2023-01-07T02:22:44.199Z,0.80
2023-01-07T02:28:18.118Z,0.30
2023-01-07T02:33:51.030Z,0.77
2023-01-07T02:39:40.950Z,3.08
2023-01-07T02:45:21.895Z,0.35
2023-01-07T02:50:43.755Z,0.70
2023-01-07T02:56:08.355Z,0.73
2023-01-07T03:01:30.305Z,2.45
2023-01-07T03:07:19.673Z,1.27
2023-01-07T03:12:52.193Z,0.47
2023-01-07T03:18:28.907Z,0.63
2023-01-07T03:23:57.156Z,0.20
2023-01-07T03:29:20.987Z,0.22
2023-01-07T03:34:44.078Z,0.57
2023-01-07T03:40:10.105Z,1.20
2023-01-07T03:45:31.927Z,0.30
2023-01-07T03:50:53.663Z,0.68
2023-01-07T03:56:15.401Z,1.98
2023-01-07T04:01:37.347Z,2.47
2023-01-07T04:06:59.191Z,0.52
2023-01-07T04:12:21.028Z,0.28
2023-01-07T04:17:42.848Z,0.60
2023-01-07T04:23:04.571Z,2.22
2023-01-07T04:28:26.337Z,0.40
2023-01-07T04:33:48.182Z,0.50
2023-01-07T04:39:09.913Z,0.45
2023-01-07T04:44:31.656Z,0.68
2023-01-07T04:49:53.354Z,1.00
2023-01-07T04:55:15.182Z,0.90
2023-01-07T05:00:37.452Z,0.60
2023-01-07T05:05:59.236Z,0.68
2023-01-07T05:11:22.054Z,1.15
2023-01-07T05:16:43.899Z,0.52
2023-01-07T05:22:05.702Z,1.67
2023-01-07T05:27:27.432Z,2.80
2023-01-07T05:32:49.229Z,0.30
2023-01-07T05:38:11.095Z,0.70
2023-01-07T05:43:33.067Z,0.30
2023-01-07T05:48:54.837Z,1.15
2023-01-07T05:54:16.668Z,0.82
2023-01-07T05:59:38.663Z,0.22
2023-01-07T06:05:00.495Z,0.50
2023-01-07T06:10:22.594Z,0.52
2023-01-07T06:15:44.355Z,0.35
2023-01-07T06:21:06.214Z,0.70
2023-01-07T06:26:27.960Z,1.33
2023-01-07T06:31:49.849Z,1.02
2023-01-07T06:37:11.728Z,0.35
2023-01-07T06:42:33.449Z,0.50
2023-01-07T06:47:57.542Z,0.45
2023-01-07T06:53:19.603Z,0.52
2023-01-07T06:58:41.343Z,0.40
2023-01-07T07:04:03.401Z,0.13
2023-01-07T07:09:25.119Z,0.28
2023-01-07T07:14:47.229Z,0.20
2023-01-07T07:20:09.529Z,0.10
2023-01-07T07:25:31.274Z,0.80
2023-01-07T07:30:53.010Z,0.82
2023-01-07T07:36:14.860Z,0.22
2023-01-07T07:41:36.558Z,2.42
2023-01-07T07:46:58.309Z,0.40
2023-01-07T07:52:20.046Z,0.20
2023-01-07T07:57:41.855Z,0.15
2023-01-07T08:03:04.304Z,0.57
2023-01-07T08:08:26.046Z,0.45
2023-01-07T08:13:48.015Z,0.22
2023-01-07T08:19:10.918Z,0.22
2023-01-07T08:24:32.711Z,0.98
2023-01-07T08:29:55.432Z,2.00
2023-01-07T08:35:17.541Z,6.30
2023-01-07T08:40:39.340Z,1.48
2023-01-07T08:46:01.062Z,5.68
2023-01-07T08:51:22.854Z,4.70
2023-01-07T08:56:44.617Z,17.02
2023-01-07T09:02:11.025Z,5.43
2023-01-07T09:07:32.820Z,1.90
2023-01-07T09:12:54.566Z,3.22
2023-01-07T09:18:16.323Z,1.48
2023-01-07T09:23:38.080Z,5.18
2023-01-07T09:28:59.757Z,3.20
2023-01-07T09:34:21.683Z,2.45
2023-01-07T09:39:43.411Z,3.03
2023-01-07T09:45:19.307Z,4.13
2023-01-07T09:50:46.634Z,8.18
2023-01-07T09:56:25.577Z,5.57
2023-01-07T10:01:59.819Z,9.68
2023-01-07T10:07:38.492Z,5.00
2023-01-07T10:13:31.927Z,11.35
2023-01-07T10:19:33.097Z,8.10
2023-01-07T10:25:00.532Z,7.63
2023-01-07T10:30:27.111Z,5.22
2023-01-07T10:36:11.140Z,8.65
2023-01-07T10:41:54.534Z,9.30
2023-01-07T10:47:57.482Z,5.70
2023-01-07T10:53:49.724Z,4.10
2023-01-07T10:59:15.761Z,8.68
2023-01-07T11:04:37.446Z,4.57
2023-01-07T11:10:04.435Z,4.63
2023-01-07T11:15:45.429Z,3.78
2023-01-07T11:21:07.303Z,2.30
2023-01-07T11:26:35.003Z,2.08
2023-01-07T11:32:00.755Z,1.13
2023-01-07T11:37:34.358Z,2.53
2023-01-07T11:42:57.768Z,6.68
2023-01-07T11:48:35.229Z,6.40
2023-01-07T11:53:59.275Z,9.27
2023-01-07T11:59:20.926Z,3.38
2023-01-07T12:04:42.775Z,2.42
2023-01-07T12:10:22.646Z,3.28
2023-01-07T12:16:02.232Z,6.88
2023-01-07T12:21:29.386Z,4.18
2023-01-07T12:27:34.960Z,6.35
2023-01-07T12:33:11.656Z,5.90
2023-01-07T12:38:40.700Z,3.47
2023-01-07T12:44:11.571Z,8.10
2023-01-07T12:49:47.132Z,5.63
2023-01-07T12:55:25.791Z,2.23
2023-01-07T13:00:52.801Z,2.15
2023-01-07T13:06:21.134Z,2.17
2023-01-07T13:12:08.402Z,2.65
2023-01-07T13:17:51.812Z,9.43
2023-01-07T13:23:50.780Z,4.35
2023-01-07T13:29:24.445Z,1.42
2023-01-07T13:35:13.870Z,1.75
2023-01-07T13:40:44.340Z,4.03
2023-01-07T13:46:12.710Z,7.22
2023-01-07T13:51:37.984Z,5.28
2023-01-07T13:57:19.899Z,2.67
2023-01-07T14:02:58.207Z,3.67
2023-01-07T14:08:28.626Z,5.78
2023-01-07T14:14:02.012Z,5.43
2023-01-07T14:19:45.748Z,6.50
2023-01-07T14:25:25.425Z,4.63
2023-01-07T14:30:50.090Z,4.47
2023-01-07T14:36:12.998Z,7.07
2023-01-07T14:41:34.784Z,3.58
2023-01-07T14:46:56.771Z,2.05
2023-01-07T14:52:48.747Z,7.80
2023-01-07T14:58:32.447Z,3.03
2023-01-07T15:04:32.554Z,1.92
2023-01-07T15:10:16.722Z,5.72
2023-01-07T15:15:59.775Z,5.35
2023-01-07T15:21:30.342Z,1.95
2023-01-07T15:27:05.670Z,2.95
2023-01-07T15:32:35.335Z,1.27
2023-01-07T15:37:57.390Z,0.55
2023-01-07T15:43:23.981Z,1.63
2023-01-07T15:48:45.706Z,1.73
2023-01-07T15:54:25.741Z,1.23
2023-01-07T15:59:50.730Z,1.20
2023-01-07T16:05:12.767Z,3.67
2023-01-07T16:10:35.902Z,1.60
2023-01-07T16:16:03.459Z,3.45
2023-01-07T16:21:56.634Z,2.35
2023-01-07T16:27:27.595Z,3.70
2023-01-07T16:32:49.717Z,6.88
2023-01-07T16:38:13.372Z,4.00
2023-01-07T16:43:43.538Z,5.55
2023-01-07T16:49:26.583Z,7.53
2023-01-07T16:54:49.773Z,14.65
2023-01-07T17:00:20.320Z,19.23
2023-01-07T17:05:42.185Z,21.73
2023-01-07T17:11:22.666Z,15.02
2023-01-07T17:16:44.514Z,14.63
2023-01-07T17:22:29.558Z,11.20
2023-01-07T17:27:56.653Z,12.70
2023-01-07T17:33:20.700Z,8.85
2023-01-07T17:38:42.501Z,7.28
2023-01-07T17:44:06.615Z,8.15
2023-01-07T17:49:28.325Z,9.80
2023-01-07T17:54:50.252Z,8.93
2023-01-07T18:00:17.952Z,9.65
2023-01-07T18:05:41.392Z,15.00
2023-01-07T18:11:22.112Z,23.50
2023-01-07T18:16:44.348Z,28.35
2023-01-07T18:22:06.308Z,13.50
2023-01-07T18:27:28.085Z,16.75
2023-01-07T18:32:53.205Z,13.32
2023-01-07T18:38:16.766Z,17.55
2023-01-07T18:43:38.504Z,24.88
2023-01-07T18:49:00.545Z,16.75
2023-01-07T18:54:22.300Z,12.60
2023-01-07T18:59:44.427Z,14.90
2023-01-07T19:05:07.194Z,16.02
2023-01-07T19:10:28.879Z,11.93
2023-01-07T19:15:50.609Z,11.98
2023-01-07T19:21:12.736Z,11.45
2023-01-07T19:26:35.344Z,13.95
2023-01-07T19:31:57.157Z,9.32
2023-01-07T19:37:19.487Z,8.20
2023-01-07T19:42:41.354Z,8.98
2023-01-07T19:48:03.117Z,7.13
2023-01-07T19:53:25.732Z,8.32
2023-01-07T19:58:47.451Z,10.57
2023-01-07T20:04:09.246Z,5.20
2023-01-07T20:09:31.064Z,12.48
2023-01-07T20:14:52.744Z,8.50
2023-01-07T20:20:14.751Z,7.35
2023-01-07T20:25:36.487Z,8.57
2023-01-07T20:30:58.206Z,5.28
2023-01-07T20:36:24.076Z,3.47
2023-01-07T20:41:46.037Z,1.98
2023-01-07T20:47:07.737Z,4.50
2023-01-07T20:52:29.420Z,4.03
2023-01-07T20:57:51.144Z,5.90
2023-01-07T21:03:12.903Z,3.00
2023-01-07T21:08:34.927Z,4.55
2023-01-07T21:13:56.698Z,2.20
2023-01-07T21:19:18.425Z,0.98
2023-01-07T21:24:40.145Z,3.10
2023-01-07T21:30:04.945Z,3.25
2023-01-07T21:35:27.627Z,2.17
2023-01-07T21:40:49.644Z,5.18
2023-01-07T21:46:11.911Z,1.77
2023-01-07T21:51:34.565Z,6.70
2023-01-07T21:56:56.254Z,3.33
2023-01-07T22:02:18.960Z,2.63
2023-01-07T22:07:40.757Z,5.35
2023-01-07T22:13:02.446Z,2.20
2023-01-07T22:18:24.225Z,1.65
2023-01-07T22:23:47.283Z,1.85
2023-01-07T22:29:09.061Z,2.92
2023-01-07T22:34:30.795Z,4.95
2023-01-07T22:39:58.595Z,2.47
2023-01-07T22:45:39.342Z,1.25
2023-01-07T22:51:06.793Z,0.80
2023-01-07T22:56:28.984Z,2.67
2023-01-07T23:01:50.663Z,2.78
2023-01-07T23:07:12.357Z,3.30
2023-01-07T23:12:34.104Z,2.15
2023-01-07T23:17:56.158Z,3.53
2023-01-07T23:23:17.917Z,1.27
2023-01-07T23:28:39.781Z,2.28
2023-01-07T23:34:01.785Z,2.30
2023-01-07T23:39:23.597Z,2.78
2023-01-07T23:44:45.404Z,0.68
2023-01-07T23:50:07.770Z,1.92
2023-01-07T23:55:29.682Z,1.95
